AIRPORT METAR

METAR FOR LIML
ADDS - METARS form results

(0805 UTC 12 May 2021)
Data provider http://aviationweather.gov/metar/data/
 
METAR text: LIML 120750Z 27005KT 220V310 9999 FEW020 15/11 Q1008 NOSIG
Conditions at: LIML (MILANO/LINATE , IT) observed 0750 UTC 12 May 2021
Temperature: 15.0°C (59°F)
Dewpoint: 11.0°C (52°F) [RH = 77%]
Pressure (altimeter): 29.76 inches Hg (1008.0 mb)
Winds: from the W (270 degrees) at 6 MPH (5 knots; 2.6 m/s)
Visibility: 6 or more miles (10+ km)
Ceiling: at least 12,000 feet AGL
Clouds: few clouds at 2000 feet AGL
Weather: no significant weather observed at this time

METAR text: LIML 120720Z 27004KT 180V300 9999 FEW015 14/11 Q1008 NOSIG
Conditions at: LIML (MILANO/LINATE , IT) observed 0720 UTC 12 May 2021
Temperature: 14.0°C (57°F)
Dewpoint: 11.0°C (52°F) [RH = 82%]
Pressure (altimeter): 29.76 inches Hg (1008.0 mb)
Winds: from the W (270 degrees) at 5 MPH (4 knots; 2.1 m/s)
Visibility: 6 or more miles (10+ km)
Ceiling: at least 12,000 feet AGL
Clouds: few clouds at 1500 feet AGL
Weather: no significant weather observed at this time

Forecast for: LIML (MILANO/LINATE , IT)
Text: TAF LIML 120500Z 1206/1306 VRB05KT 8000 BKN040
Forecast period: 0600 UTC 12 May 2021 to 0600 UTC 13 May 2021
Forecast type: FROM: standard forecast or significant change
Winds: variable direction winds at 6 MPH (5 knots; 2.6 m/s)
Visibility: 5 miles (8 km)
Ceiling: 4000 feet AGL
Clouds: broken clouds at 4000 feet AGL
Weather: no significant weather forecast for this period
Text: TEMPO 1212/1218 SHRA
Forecast period: 1200 to 1800 UTC 12 May 2021
Forecast type: TEMPORARY: The following changes expected for less than half the time period
Visibility: missing
Ceiling: unknown
Clouds: missing
Weather: SHRA  (rain showers)

AIRPORT MAP

 RUNWAY INFORMATION
Runway 18L Runway length 8005 ft Runway width 197 ft
Runway elevation 353 ft Runway displaced threshold 0 ft Runway heading 176
Runway 36R Runway length 8005 ft Runway width 197 ft
Runway elevation 337 ft Runway displaced threshold 0 ft Runway heading 356
Runway 18R Runway length 1972 ft Runway width 72 ft
Runway elevation 353 ft Runway displaced threshold 0 ft Runway heading 176
Runway 36L Runway length 1972 ft Runway width 72 ft
Runway elevation 349 ft Runway displaced threshold 0 ft Runway heading 356

 AIRPORT FREQUENCIES
Type APP Name MILANO APP Frequency 132.7 MHZ
Type ATIS Name ATIS Frequency 135.55 MHZ
Type DEP Name MILANO DEP Frequency 126.75 MHZ
Type GND Name GND Frequency 121.8 MHZ
Type TWR Name TWR Frequency 118.1 MHZ

 AIRPORT NEAR NAVIGATION AIDS
Type VOR-DME Name Linate Frequency 112250 KHZ
Type NDB Name Linate Frequency 386 KHZ



© 2020 - Royal Sky Service, All Right Reserved.